createdAt,value
2017-12-27T00:01:05.951Z,1.70
2017-12-27T00:03:40.592Z,1.30
2017-12-27T00:06:14.579Z,2.33
2017-12-27T00:08:48.503Z,1.03
2017-12-27T00:11:22.548Z,1.93
2017-12-27T00:13:56.531Z,1.37
2017-12-27T00:16:30.302Z,2.30
2017-12-27T00:19:05.788Z,1.30
2017-12-27T00:21:39.772Z,1.23
2017-12-27T00:24:13.716Z,1.53
2017-12-27T00:26:47.693Z,1.73
2017-12-27T00:29:21.792Z,1.23
2017-12-27T00:31:51.029Z,1.20
2017-12-27T00:34:20.051Z,1.77
2017-12-27T00:36:48.316Z,1.10
2017-12-27T00:39:16.564Z,2.03
2017-12-27T00:41:44.814Z,1.30
2017-12-27T00:44:14.643Z,1.57
2017-12-27T00:46:44.318Z,1.97
2017-12-27T00:49:12.606Z,1.20
2017-12-27T00:51:40.924Z,1.47
2017-12-27T00:54:09.174Z,0.83
2017-12-27T00:56:38.971Z,1.27
2017-12-27T00:59:08.747Z,1.13
2017-12-27T01:01:36.990Z,1.07
2017-12-27T01:04:05.296Z,2.03
2017-12-27T01:06:33.666Z,0.93
2017-12-27T01:09:01.988Z,1.50
2017-12-27T01:11:30.245Z,1.10
2017-12-27T01:13:59.545Z,1.20
2017-12-27T01:16:27.806Z,1.20
2017-12-27T01:18:56.132Z,1.97
2017-12-27T01:21:29.397Z,1.40
2017-12-27T01:23:57.731Z,0.97
2017-12-27T01:26:25.994Z,1.00
2017-12-27T01:28:55.032Z,1.20
2017-12-27T01:31:23.299Z,1.50
2017-12-27T01:33:51.552Z,1.40
2017-12-27T01:36:19.847Z,1.07
2017-12-27T01:38:48.110Z,2.13
2017-12-27T01:41:16.363Z,1.87
2017-12-27T01:43:44.633Z,1.00
2017-12-27T01:46:12.915Z,1.33
2017-12-27T01:48:41.204Z,0.97
2017-12-27T01:51:09.460Z,1.30
2017-12-27T01:53:37.717Z,1.40
2017-12-27T01:56:06.016Z,0.87
2017-12-27T01:58:34.281Z,1.13
2017-12-27T02:01:04.170Z,1.30
2017-12-27T02:03:32.421Z,1.10
2017-12-27T02:06:00.689Z,1.33
2017-12-27T02:08:28.941Z,0.90
2017-12-27T02:10:58.056Z,2.60
2017-12-27T02:13:26.503Z,1.30
2017-12-27T02:15:56.146Z,1.43
2017-12-27T02:18:24.411Z,0.80
2017-12-27T02:20:52.651Z,1.10
2017-12-27T02:23:20.932Z,1.33
2017-12-27T02:25:49.196Z,1.13
2017-12-27T02:28:17.448Z,1.23
2017-12-27T02:30:45.909Z,1.03
2017-12-27T02:33:14.916Z,1.77
2017-12-27T02:35:43.161Z,0.97
2017-12-27T02:38:11.593Z,0.97
2017-12-27T02:40:39.894Z,1.10
2017-12-27T02:43:08.140Z,0.93
2017-12-27T02:45:36.420Z,0.87
2017-12-27T02:48:04.857Z,1.60
2017-12-27T02:50:33.904Z,1.10
2017-12-27T02:53:02.217Z,1.00
2017-12-27T02:55:31.244Z,1.40
2017-12-27T02:57:59.541Z,0.60
2017-12-27T03:00:27.787Z,1.00
2017-12-27T03:02:56.928Z,1.73
2017-12-27T03:05:25.994Z,1.30
2017-12-27T03:07:54.235Z,0.97
2017-12-27T03:10:23.509Z,1.00
2017-12-27T03:12:53.284Z,0.70
2017-12-27T03:15:21.539Z,0.67
2017-12-27T03:17:50.531Z,0.80
2017-12-27T03:20:18.795Z,1.20
2017-12-27T03:22:47.811Z,0.80
2017-12-27T03:25:16.246Z,1.20
2017-12-27T03:27:44.507Z,0.80
2017-12-27T03:30:12.757Z,0.90
2017-12-27T03:32:41.023Z,0.90
2017-12-27T03:35:09.272Z,1.10
2017-12-27T03:37:38.307Z,0.97
2017-12-27T03:40:06.707Z,0.87
2017-12-27T03:42:34.962Z,0.70
2017-12-27T03:45:03.273Z,0.87
2017-12-27T03:47:31.547Z,1.63
2017-12-27T03:49:59.771Z,0.80
2017-12-27T03:52:28.366Z,1.20
2017-12-27T03:54:56.638Z,1.10
2017-12-27T03:57:24.929Z,0.87
2017-12-27T03:59:53.169Z,0.93
2017-12-27T04:02:21.420Z,0.70
2017-12-27T04:04:49.690Z,0.90
2017-12-27T04:07:18.707Z,1.10
2017-12-27T04:09:47.722Z,1.00
2017-12-27T04:12:16.167Z,1.17
2017-12-27T04:14:44.430Z,1.03
2017-12-27T04:17:13.495Z,0.90
2017-12-27T04:19:41.763Z,1.33
2017-12-27T04:22:14.429Z,0.63
2017-12-27T04:24:42.677Z,0.80
2017-12-27T04:27:10.963Z,0.60
2017-12-27T04:29:39.240Z,0.90
2017-12-27T04:32:07.500Z,0.70
2017-12-27T04:34:38.048Z,1.10
2017-12-27T04:37:06.508Z,1.13
2017-12-27T04:39:34.797Z,0.70
2017-12-27T04:42:03.304Z,0.60
2017-12-27T04:44:32.430Z,0.90
2017-12-27T04:47:00.827Z,1.20
2017-12-27T04:49:29.900Z,0.93
2017-12-27T04:51:58.160Z,1.00
2017-12-27T04:54:26.396Z,0.60
2017-12-27T04:56:58.849Z,1.20
2017-12-27T04:59:27.089Z,1.10
2017-12-27T05:01:55.331Z,1.17
2017-12-27T05:04:24.358Z,0.77
2017-12-27T05:06:52.616Z,4.27
2017-12-27T05:09:20.892Z,1.60
2017-12-27T05:11:49.994Z,0.70
2017-12-27T05:14:18.250Z,0.90
2017-12-27T05:16:46.516Z,1.20
2017-12-27T05:19:14.780Z,1.37
2017-12-27T05:21:43.064Z,1.10
2017-12-27T05:24:11.471Z,0.80
2017-12-27T05:26:39.703Z,0.80
2017-12-27T05:29:08.731Z,0.80
2017-12-27T05:31:37.844Z,0.70
2017-12-27T05:34:06.080Z,1.10
2017-12-27T05:36:34.328Z,0.80
2017-12-27T05:39:02.638Z,0.90
2017-12-27T05:41:30.901Z,1.00
2017-12-27T05:43:59.199Z,0.80
2017-12-27T05:46:28.328Z,0.70
2017-12-27T05:48:56.583Z,1.10
2017-12-27T05:51:26.357Z,0.73
2017-12-27T05:53:55.363Z,1.10
2017-12-27T05:56:23.625Z,1.20
2017-12-27T05:58:51.884Z,1.20
2017-12-27T06:01:20.150Z,0.83
2017-12-27T06:03:48.411Z,1.10
2017-12-27T06:06:16.660Z,1.40
2017-12-27T06:08:45.725Z,0.93
2017-12-27T06:11:14.731Z,0.90
2017-12-27T06:13:42.983Z,1.27
2017-12-27T06:16:11.405Z,1.30
2017-12-27T06:18:40.571Z,1.00
2017-12-27T06:21:10.835Z,0.90
2017-12-27T06:23:39.074Z,1.10
2017-12-27T06:26:08.100Z,1.10
2017-12-27T06:28:36.374Z,1.10
2017-12-27T06:31:04.629Z,1.00
2017-12-27T06:33:33.918Z,1.17
2017-12-27T06:36:02.134Z,1.13
2017-12-27T06:38:30.432Z,0.93
2017-12-27T06:40:58.696Z,0.63
2017-12-27T06:43:26.972Z,1.23
2017-12-27T06:45:57.515Z,0.90
2017-12-27T06:48:25.751Z,0.90
2017-12-27T06:50:54.752Z,1.50
2017-12-27T06:53:23.867Z,0.80
2017-12-27T06:55:52.264Z,0.87
2017-12-27T06:58:20.647Z,0.70
2017-12-27T07:00:48.898Z,1.00
2017-12-27T07:03:17.327Z,1.10
2017-12-27T07:05:45.545Z,1.00
2017-12-27T07:08:13.833Z,0.70
2017-12-27T07:10:42.190Z,0.97
2017-12-27T07:13:11.412Z,0.70
2017-12-27T07:15:39.653Z,0.63
2017-12-27T07:18:08.679Z,2.20
2017-12-27T07:20:36.990Z,1.00
2017-12-27T07:23:05.237Z,1.00
2017-12-27T07:25:33.477Z,0.97
2017-12-27T07:28:01.782Z,0.80
2017-12-27T07:30:30.278Z,1.47
2017-12-27T07:32:58.538Z,1.17
2017-12-27T07:35:26.781Z,0.90
2017-12-27T07:37:55.061Z,0.87
2017-12-27T07:40:23.316Z,0.67
2017-12-27T07:42:51.714Z,0.60
2017-12-27T07:45:22.579Z,0.57
2017-12-27T07:47:50.820Z,0.40
2017-12-27T07:50:19.102Z,0.73
2017-12-27T07:52:47.340Z,0.87
2017-12-27T07:55:15.579Z,0.50
2017-12-27T07:57:43.852Z,0.57
2017-12-27T08:00:12.103Z,0.80
2017-12-27T08:02:40.328Z,0.60
2017-12-27T08:05:08.588Z,0.70
2017-12-27T08:07:36.879Z,0.80
2017-12-27T08:10:05.141Z,0.70
2017-12-27T08:12:33.416Z,0.87
2017-12-27T08:15:01.651Z,1.00
2017-12-27T08:17:29.884Z,0.70
2017-12-27T08:19:58.195Z,1.00
2017-12-27T08:22:26.469Z,0.70
2017-12-27T08:24:55.566Z,1.10
2017-12-27T08:27:23.840Z,1.40
2017-12-27T08:29:52.143Z,1.10
2017-12-27T08:32:20.602Z,0.90
2017-12-27T08:34:48.857Z,1.33
2017-12-27T08:37:17.089Z,0.90
2017-12-27T08:39:45.332Z,1.13
2017-12-27T08:42:14.365Z,1.00
2017-12-27T08:44:42.790Z,0.80
2017-12-27T08:47:11.039Z,1.20
2017-12-27T08:49:39.327Z,0.63
2017-12-27T08:52:08.186Z,1.43
2017-12-27T08:54:37.131Z,1.40
2017-12-27T08:57:05.410Z,0.73
2017-12-27T08:59:33.647Z,0.87
2017-12-27T09:02:01.942Z,1.33
2017-12-27T09:04:31.258Z,0.93
2017-12-27T09:06:59.512Z,0.87
2017-12-27T09:09:27.748Z,1.03
2017-12-27T09:11:56.059Z,1.00
2017-12-27T09:14:24.364Z,0.70
2017-12-27T09:16:52.587Z,0.80
2017-12-27T09:19:21.141Z,0.70
2017-12-27T09:21:49.608Z,0.77
2017-12-27T09:24:17.867Z,0.87
2017-12-27T09:26:46.128Z,0.90
2017-12-27T09:29:14.425Z,0.70
2017-12-27T09:31:42.694Z,0.80
2017-12-27T09:34:11.824Z,0.80
2017-12-27T09:36:40.078Z,0.40
2017-12-27T09:39:08.333Z,0.70
2017-12-27T09:41:36.588Z,0.50
2017-12-27T09:44:04.863Z,1.00
2017-12-27T09:46:33.940Z,0.67
2017-12-27T09:49:02.986Z,0.70
2017-12-27T09:51:32.096Z,0.50
2017-12-27T09:54:00.441Z,0.63
2017-12-27T09:56:28.716Z,1.03
2017-12-27T09:58:57.032Z,0.67
2017-12-27T10:01:25.360Z,0.60
2017-12-27T10:03:53.637Z,0.67
2017-12-27T10:06:21.887Z,0.70
2017-12-27T10:08:50.149Z,0.70
2017-12-27T10:11:18.428Z,0.83
2017-12-27T10:13:47.668Z,0.77
2017-12-27T10:16:16.028Z,0.70
2017-12-27T10:18:44.308Z,0.60
2017-12-27T10:21:12.795Z,0.53
2017-12-27T10:23:43.092Z,0.87
2017-12-27T10:26:11.341Z,0.80
2017-12-27T10:28:39.805Z,0.50
2017-12-27T10:31:09.598Z,0.50
2017-12-27T10:33:40.026Z,0.70
2017-12-27T10:36:08.311Z,0.80
2017-12-27T10:38:36.580Z,0.47
2017-12-27T10:41:04.913Z,0.70
2017-12-27T10:43:33.165Z,0.50
2017-12-27T10:46:01.663Z,0.43
2017-12-27T10:48:31.476Z,0.57
2017-12-27T10:51:00.725Z,0.60
2017-12-27T10:53:29.964Z,0.63
2017-12-27T10:55:58.196Z,0.50
2017-12-27T10:58:27.761Z,0.50
2017-12-27T11:00:57.362Z,2.70
2017-12-27T11:03:26.094Z,1.30
2017-12-27T11:05:54.332Z,0.70
2017-12-27T11:08:23.896Z,0.73
2017-12-27T11:10:52.152Z,0.67
2017-12-27T11:13:21.305Z,0.90
2017-12-27T11:15:49.581Z,0.60
2017-12-27T11:18:17.886Z,0.70
2017-12-27T11:20:47.735Z,0.70
2017-12-27T11:23:16.008Z,0.53
2017-12-27T11:25:45.058Z,0.63
2017-12-27T11:28:14.071Z,0.90
2017-12-27T11:30:42.353Z,0.60
2017-12-27T11:33:10.605Z,0.40
2017-12-27T11:35:38.855Z,0.80
2017-12-27T11:38:07.752Z,0.97
2017-12-27T11:40:36.053Z,0.80
2017-12-27T11:43:06.035Z,0.50
2017-12-27T11:45:35.192Z,0.67
2017-12-27T11:48:03.443Z,0.50
2017-12-27T11:50:31.717Z,0.40
2017-12-27T11:53:00.033Z,0.43
2017-12-27T11:55:29.222Z,0.80
2017-12-27T11:57:57.477Z,0.40
2017-12-27T12:00:25.774Z,0.57
2017-12-27T12:02:54.016Z,0.50
2017-12-27T12:05:22.472Z,1.60
2017-12-27T12:07:50.716Z,0.80
2017-12-27T12:10:19.855Z,0.37
2017-12-27T12:12:48.098Z,0.60
2017-12-27T12:15:16.545Z,0.70
2017-12-27T12:17:46.366Z,0.50
2017-12-27T12:20:15.392Z,0.70
2017-12-27T12:22:44.218Z,0.60
2017-12-27T12:25:12.486Z,0.67
2017-12-27T12:27:40.760Z,0.33
2017-12-27T12:30:09.050Z,0.80
2017-12-27T12:32:38.068Z,0.40
2017-12-27T12:35:06.300Z,0.63
2017-12-27T12:37:34.621Z,0.50
2017-12-27T12:40:02.886Z,0.40
2017-12-27T12:42:31.131Z,0.50
2017-12-27T12:45:00.169Z,0.50
2017-12-27T12:47:28.513Z,0.87
2017-12-27T12:49:56.842Z,0.80
2017-12-27T12:52:25.076Z,0.73
2017-12-27T12:54:53.347Z,1.10
2017-12-27T12:57:21.606Z,0.60
2017-12-27T12:59:49.890Z,0.50
2017-12-27T13:02:18.157Z,1.30
2017-12-27T13:04:47.982Z,0.50
2017-12-27T13:07:17.135Z,0.50
2017-12-27T13:09:45.421Z,0.30
2017-12-27T13:12:13.729Z,0.40
2017-12-27T13:14:42.792Z,0.53
2017-12-27T13:17:11.052Z,0.50
2017-12-27T13:19:39.336Z,0.83
2017-12-27T13:22:07.592Z,0.50
2017-12-27T13:24:37.886Z,0.70
2017-12-27T13:27:07.059Z,0.87
2017-12-27T13:29:36.118Z,0.50
2017-12-27T13:32:04.385Z,0.80
2017-12-27T13:34:33.580Z,0.40
2017-12-27T13:37:04.057Z,0.30
2017-12-27T13:39:32.292Z,0.60
2017-12-27T13:42:03.757Z,0.80
2017-12-27T13:44:32.000Z,0.63
2017-12-27T13:47:00.270Z,0.70
2017-12-27T13:49:28.545Z,0.60
2017-12-27T15:07:54.819Z,1.70
2017-12-27T15:10:23.095Z,1.40
2017-12-27T15:12:52.413Z,1.53
2017-12-27T15:15:20.663Z,1.30
2017-12-27T15:17:48.980Z,1.23
2017-12-27T15:20:17.278Z,1.47
2017-12-27T15:22:47.182Z,1.40
2017-12-27T15:25:16.400Z,1.57
2017-12-27T15:27:45.445Z,1.20
2017-12-27T15:30:14.296Z,1.00
2017-12-27T15:32:42.537Z,0.80
2017-12-27T15:35:10.818Z,1.30
2017-12-27T15:37:39.876Z,1.17
2017-12-27T15:40:08.922Z,1.17
2017-12-27T15:42:38.535Z,1.20
2017-12-27T15:45:07.544Z,1.00
2017-12-27T15:47:35.932Z,1.87
2017-12-27T15:50:04.233Z,1.10
2017-12-27T15:52:32.489Z,1.30
2017-12-27T15:55:00.748Z,1.37
2017-12-27T15:57:29.032Z,1.70
2017-12-27T15:59:58.140Z,2.30
2017-12-27T16:02:26.421Z,1.97
2017-12-27T16:04:55.456Z,1.83
2017-12-27T16:07:26.898Z,1.63
2017-12-27T16:09:55.188Z,2.27
2017-12-27T16:12:24.424Z,3.87
2017-12-27T16:14:52.690Z,4.10
2017-12-27T16:17:21.099Z,3.50
2017-12-27T16:19:49.359Z,3.17
2017-12-27T16:22:17.631Z,2.27
2017-12-27T16:24:45.905Z,2.50
2017-12-27T16:27:14.188Z,2.10
2017-12-27T16:29:42.435Z,2.30
2017-12-27T16:32:13.423Z,2.00
2017-12-27T16:34:41.684Z,2.03
2017-12-27T16:37:09.975Z,2.00
2017-12-27T16:39:38.809Z,2.20
2017-12-27T16:42:07.083Z,1.70
2017-12-27T16:44:35.359Z,2.30
2017-12-27T16:47:03.644Z,2.00
2017-12-27T16:49:31.909Z,1.67
2017-12-27T16:52:00.189Z,1.93
2017-12-27T16:54:28.465Z,2.10
2017-12-27T16:56:58.230Z,2.13
2017-12-27T16:59:26.501Z,2.40
2017-12-27T17:01:55.787Z,3.70
2017-12-27T17:04:26.281Z,2.87
2017-12-27T17:06:55.387Z,2.50
2017-12-27T17:09:23.855Z,2.37
2017-12-27T17:11:52.261Z,2.80
2017-12-27T17:14:22.253Z,2.00
2017-12-27T17:16:50.599Z,2.30
2017-12-27T17:19:22.054Z,1.93
2017-12-27T17:21:50.313Z,2.00
2017-12-27T17:24:22.305Z,2.80
2017-12-27T17:26:52.674Z,2.10
2017-12-27T17:29:20.925Z,2.20
2017-12-27T17:31:49.977Z,3.20
2017-12-27T17:34:18.266Z,2.93
2017-12-27T17:36:46.523Z,2.20
2017-12-27T17:39:14.935Z,1.90
2017-12-27T17:41:43.222Z,2.70
2017-12-27T17:44:11.602Z,2.30
2017-12-27T17:46:39.840Z,2.50
2017-12-27T17:49:08.154Z,2.37
2017-12-27T17:51:36.384Z,1.80
2017-12-27T17:54:04.656Z,2.60
2017-12-27T17:56:32.933Z,2.00
2017-12-27T17:59:01.224Z,2.33
2017-12-27T18:01:29.506Z,2.30
2017-12-27T18:03:57.790Z,2.60
2017-12-27T18:06:27.197Z,2.40
2017-12-27T18:08:55.479Z,2.20
2017-12-27T18:11:25.880Z,1.93
2017-12-27T18:13:54.193Z,2.40
2017-12-27T18:16:22.408Z,2.30
2017-12-27T18:18:50.689Z,2.27
2017-12-27T18:21:18.975Z,2.33
2017-12-27T18:23:48.537Z,2.10
2017-12-27T18:26:18.262Z,2.20
2017-12-27T18:28:46.520Z,2.97
2017-12-27T18:31:14.819Z,3.00
2017-12-27T18:33:43.116Z,2.27
2017-12-27T18:36:11.380Z,2.60
2017-12-27T18:38:39.668Z,2.37
2017-12-27T18:41:07.905Z,1.80
2017-12-27T18:43:36.173Z,1.77
2017-12-27T18:46:05.297Z,1.70
2017-12-27T18:48:33.597Z,2.17
2017-12-27T18:51:01.846Z,2.00
2017-12-27T18:53:30.915Z,2.20
2017-12-27T18:55:59.195Z,2.20
2017-12-27T18:58:27.450Z,2.30
2017-12-27T19:00:57.773Z,2.43
2017-12-27T19:03:26.027Z,3.60
2017-12-27T19:05:56.374Z,2.23
2017-12-27T19:08:24.692Z,2.20
2017-12-27T19:10:54.665Z,2.33
2017-12-27T19:13:22.921Z,3.93
2017-12-27T19:15:51.205Z,1.93
2017-12-27T19:18:19.478Z,2.30
2017-12-27T19:20:47.752Z,2.00
2017-12-27T19:23:16.066Z,2.07
2017-12-27T19:25:44.320Z,2.27
2017-12-27T19:28:12.724Z,2.43
2017-12-27T19:30:40.962Z,2.20
2017-12-27T19:33:09.231Z,1.97
2017-12-27T19:35:37.504Z,2.40
2017-12-27T19:38:05.783Z,2.50
2017-12-27T19:40:34.243Z,2.07
2017-12-27T19:43:03.455Z,3.00
2017-12-27T19:45:31.732Z,2.30
2017-12-27T19:48:00.058Z,2.83
2017-12-27T19:50:28.860Z,2.93
2017-12-27T19:52:57.129Z,2.40
2017-12-27T19:55:25.397Z,2.60
2017-12-27T19:57:53.700Z,2.00
2017-12-27T20:00:22.162Z,3.23
2017-12-27T20:02:50.478Z,3.40
2017-12-27T20:05:18.721Z,3.30
2017-12-27T20:07:46.991Z,4.10
2017-12-27T20:10:15.332Z,3.50
2017-12-27T20:12:43.746Z,3.07
2017-12-27T20:15:11.966Z,2.77
2017-12-27T20:17:40.252Z,3.80
2017-12-27T20:20:08.952Z,3.00
2017-12-27T20:22:37.460Z,2.90
2017-12-27T20:25:06.098Z,3.47
2017-12-27T20:27:35.646Z,3.63
2017-12-27T20:30:04.145Z,2.90
2017-12-27T20:32:32.376Z,3.33
2017-12-27T20:35:01.247Z,3.63
2017-12-27T20:37:30.827Z,3.60
2017-12-27T20:40:00.837Z,3.80
2017-12-27T20:42:30.843Z,3.23
2017-12-27T20:44:59.105Z,2.87
2017-12-27T20:47:28.990Z,2.90
2017-12-27T20:49:57.270Z,3.60
2017-12-27T20:52:26.723Z,3.00
2017-12-27T20:54:55.008Z,2.90
2017-12-27T20:57:23.268Z,2.80
2017-12-27T20:59:53.276Z,3.27
2017-12-27T21:02:22.319Z,3.00
2017-12-27T21:04:52.937Z,3.00
2017-12-27T21:07:21.227Z,3.53
2017-12-27T21:09:49.573Z,3.10
2017-12-27T21:12:17.866Z,3.50
2017-12-27T21:14:46.869Z,3.50
2017-12-27T21:17:15.156Z,3.97
2017-12-27T21:19:43.441Z,4.17
2017-12-27T21:22:11.714Z,4.77
2017-12-27T21:24:40.105Z,4.13
2017-12-27T21:27:08.992Z,4.80
2017-12-27T21:29:38.072Z,5.13
2017-12-27T21:32:07.192Z,4.73
2017-12-27T21:34:35.504Z,5.03
2017-12-27T21:37:03.769Z,4.37
2017-12-27T21:39:32.008Z,3.80
2017-12-27T21:42:00.351Z,4.43
2017-12-27T21:44:30.277Z,3.20
2017-12-27T21:47:00.803Z,3.50
2017-12-27T21:49:35.573Z,2.47
2017-12-27T21:52:03.872Z,2.43
2017-12-27T21:54:32.183Z,1.93
2017-12-27T21:57:00.449Z,2.60
2017-12-27T21:59:34.516Z,2.50
2017-12-27T22:02:02.792Z,2.80
2017-12-27T22:04:31.759Z,3.10
2017-12-27T22:07:00.037Z,3.30
2017-12-27T22:09:29.792Z,2.90
2017-12-27T22:11:58.217Z,2.90
2017-12-27T22:14:26.716Z,3.13
2017-12-27T22:16:55.699Z,3.40
2017-12-27T22:19:23.974Z,2.80
2017-12-27T22:21:52.841Z,2.30
2017-12-27T22:24:21.169Z,2.33
2017-12-27T22:26:49.464Z,2.77
2017-12-27T22:29:17.727Z,3.23
2017-12-27T22:31:46.004Z,2.67
2017-12-27T22:34:15.134Z,2.23
2017-12-27T22:36:43.385Z,2.30
2017-12-27T22:39:11.628Z,1.90
2017-12-27T22:41:39.896Z,2.50
2017-12-27T22:44:08.976Z,2.10
2017-12-27T22:46:38.149Z,2.17
2017-12-27T22:49:07.112Z,2.10
2017-12-27T22:51:35.392Z,2.00
2017-12-27T22:54:03.671Z,3.00
2017-12-27T22:56:31.958Z,3.70
2017-12-27T22:59:00.250Z,4.10
2017-12-27T23:01:28.645Z,5.23
2017-12-27T23:03:56.872Z,7.83
2017-12-27T23:06:25.161Z,8.20
2017-12-27T23:08:53.425Z,10.60
2017-12-27T23:11:21.738Z,11.07
2017-12-27T23:13:50.044Z,13.57
2017-12-27T23:16:18.326Z,16.77
2017-12-27T23:18:47.609Z,17.37
2017-12-27T23:21:16.064Z,12.60
2017-12-27T23:23:45.169Z,11.47
2017-12-27T23:26:14.190Z,6.17
2017-12-27T23:28:42.447Z,4.23
2017-12-27T23:31:11.469Z,2.13
2017-12-27T23:33:39.764Z,2.23
2017-12-27T23:36:08.034Z,2.50
2017-12-27T23:38:37.019Z,2.67
2017-12-27T23:41:05.304Z,2.40
2017-12-27T23:43:33.552Z,2.43
2017-12-27T23:46:01.803Z,2.07
2017-12-27T23:48:31.576Z,1.90
2017-12-27T23:50:59.816Z,1.70
2017-12-27T23:53:28.128Z,1.97
2017-12-27T23:55:57.220Z,1.83
2017-12-27T23:58:26.514Z,1.30
